createdAt,value
2022-08-25T00:00:00.300Z,37.90
2022-08-25T00:00:10.175Z,36.20
2022-08-25T00:00:20.176Z,29.30
2022-08-25T00:00:30.183Z,28.40
2022-08-25T00:00:40.174Z,26.30
2022-08-25T00:00:50.181Z,24.50
2022-08-25T00:01:00.182Z,23.50
2022-08-25T00:01:10.171Z,26.80
2022-08-25T00:01:20.211Z,27.60
2022-08-25T00:01:30.181Z,30.40
2022-08-25T00:01:40.164Z,24.40
2022-08-25T00:01:50.191Z,27.30
2022-08-25T00:02:00.433Z,22.30
2022-08-25T00:02:10.362Z,22.80
2022-08-25T00:02:20.272Z,24.00
2022-08-25T00:02:30.269Z,35.30
2022-08-25T00:02:40.278Z,37.00
2022-08-25T00:02:54.952Z,31.20
2022-08-25T00:03:00.229Z,27.70
2022-08-25T00:03:10.188Z,35.20
2022-08-25T00:03:20.169Z,34.60
2022-08-25T00:03:30.169Z,28.60
2022-08-25T00:03:40.308Z,23.60
2022-08-25T00:03:50.168Z,23.40
2022-08-25T00:04:00.159Z,23.30
2022-08-25T00:04:11.030Z,33.30
2022-08-25T00:04:20.172Z,37.80
2022-08-25T00:04:30.205Z,33.20
2022-08-25T00:04:40.170Z,23.30
2022-08-25T00:04:53.857Z,23.40
2022-08-25T00:05:00.199Z,28.30
2022-08-25T00:05:10.209Z,34.70
2022-08-25T00:05:20.245Z,31.50
2022-08-25T00:05:32.508Z,31.60
2022-08-25T00:05:40.240Z,24.50
2022-08-25T00:05:50.228Z,23.70
2022-08-25T00:06:00.151Z,22.30
2022-08-25T00:06:11.019Z,23.00
2022-08-25T00:06:20.939Z,24.80
2022-08-25T00:06:30.939Z,34.40
2022-08-25T00:06:40.926Z,33.90
2022-08-25T00:06:50.955Z,27.30
2022-08-25T00:07:03.396Z,28.90
2022-08-25T00:07:10.930Z,27.80
2022-08-25T00:07:20.966Z,35.30
2022-08-25T00:07:30.951Z,24.60
2022-08-25T00:07:41.020Z,24.80
2022-08-25T00:07:50.925Z,24.50
2022-08-25T00:08:01.014Z,24.40
2022-08-25T00:08:10.951Z,22.60
2022-08-25T00:08:20.941Z,23.30
2022-08-25T00:08:30.161Z,23.80
2022-08-25T00:08:40.139Z,25.00
2022-08-25T00:08:50.194Z,24.10
2022-08-25T00:09:00.146Z,28.30
2022-08-25T00:09:10.132Z,33.00
2022-08-25T00:09:20.144Z,29.10
2022-08-25T00:09:30.135Z,24.10
2022-08-25T00:09:40.137Z,23.30
2022-08-25T00:09:50.140Z,24.10
2022-08-25T00:10:00.147Z,24.40
2022-08-25T00:10:10.205Z,24.00
2022-08-25T00:10:20.938Z,23.80
2022-08-25T00:10:30.252Z,27.00
2022-08-25T00:10:40.129Z,30.10
2022-08-25T00:10:59.929Z,34.90
2022-08-25T00:11:03.637Z,39.60
2022-08-25T00:11:10.134Z,38.10
2022-08-25T00:11:20.942Z,32.40
2022-08-25T00:11:30.155Z,26.70
2022-08-25T00:11:40.124Z,27.10
2022-08-25T00:11:50.127Z,31.60
2022-08-25T00:12:00.155Z,28.70
2022-08-25T00:12:10.130Z,36.20
2022-08-25T00:12:20.129Z,44.40
2022-08-25T00:12:30.184Z,47.40
2022-08-25T00:12:40.124Z,45.80
2022-08-25T00:12:50.124Z,37.70
2022-08-25T00:13:00.119Z,37.30
2022-08-25T00:13:10.124Z,28.20
2022-08-25T00:13:20.127Z,25.20
2022-08-25T00:13:30.196Z,25.70
2022-08-25T00:13:40.133Z,26.30
2022-08-25T00:13:50.132Z,30.20
2022-08-25T00:14:00.298Z,28.30
2022-08-25T00:14:10.137Z,35.70
2022-08-25T00:14:20.181Z,38.40
2022-08-25T00:14:30.112Z,36.50
2022-08-25T00:14:40.966Z,41.20
2022-08-25T00:14:50.134Z,39.90
2022-08-25T00:15:00.118Z,36.50
2022-08-25T00:15:10.116Z,22.90
2022-08-25T00:15:20.139Z,22.80
2022-08-25T00:15:30.977Z,23.90
2022-08-25T00:15:40.191Z,26.10
2022-08-25T00:15:50.266Z,39.90
2022-08-25T00:16:00.170Z,35.50
2022-08-25T00:16:10.215Z,38.00
2022-08-25T00:16:20.215Z,25.20
2022-08-25T00:16:30.105Z,25.90
2022-08-25T00:16:40.946Z,24.30
2022-08-25T00:16:50.105Z,24.30
2022-08-25T00:17:00.939Z,32.90
2022-08-25T00:17:10.101Z,40.80
2022-08-25T00:17:20.119Z,41.60
2022-08-25T00:17:30.112Z,33.90
2022-08-25T00:17:40.970Z,24.70
2022-08-25T00:17:50.196Z,24.90
2022-08-25T00:18:00.190Z,25.30
2022-08-25T00:18:16.648Z,24.90
2022-08-25T00:18:20.153Z,23.90
2022-08-25T00:18:30.117Z,23.40
2022-08-25T00:18:40.105Z,26.20
2022-08-25T00:18:50.194Z,31.10
2022-08-25T00:19:00.269Z,30.30
2022-08-25T00:19:10.140Z,25.00
2022-08-25T00:19:20.107Z,23.60
2022-08-25T00:19:30.101Z,23.20
2022-08-25T00:19:40.088Z,23.10
2022-08-25T00:19:50.100Z,23.90
2022-08-25T00:20:00.133Z,23.90
2022-08-25T00:20:10.107Z,24.40
2022-08-25T00:20:20.103Z,24.40
2022-08-25T00:20:30.110Z,25.00
2022-08-25T00:20:40.378Z,24.90
2022-08-25T00:20:50.938Z,24.40
2022-08-25T00:21:00.083Z,24.60
2022-08-25T00:21:10.080Z,26.50
2022-08-25T00:21:20.107Z,30.30
2022-08-25T00:21:30.078Z,26.60
2022-08-25T00:21:40.088Z,23.70
2022-08-25T00:21:50.087Z,22.50
2022-08-25T00:22:00.078Z,22.50
2022-08-25T00:22:10.091Z,23.10
2022-08-25T00:22:20.086Z,24.50
2022-08-25T00:22:30.073Z,28.40
2022-08-25T00:22:40.082Z,29.10
2022-08-25T00:22:50.939Z,29.70
2022-08-25T00:23:00.952Z,28.00
2022-08-25T00:23:10.089Z,25.60
2022-08-25T00:23:20.096Z,24.30
2022-08-25T00:23:30.067Z,22.90
2022-08-25T00:23:40.082Z,23.40
2022-08-25T00:23:50.149Z,23.00
2022-08-25T00:24:00.093Z,23.70
2022-08-25T00:24:10.070Z,23.50
2022-08-25T00:24:20.125Z,25.10
2022-08-25T00:24:30.064Z,24.60
2022-08-25T00:24:40.088Z,29.70
2022-08-25T00:24:50.068Z,25.90
2022-08-25T00:25:00.958Z,26.00
2022-08-25T00:25:10.071Z,24.30
2022-08-25T00:25:20.065Z,23.50
2022-08-25T00:25:30.063Z,23.40
2022-08-25T00:25:40.064Z,24.10
2022-08-25T00:25:50.064Z,24.00
2022-08-25T00:26:00.068Z,25.60
2022-08-25T00:26:10.068Z,24.70
2022-08-25T00:26:20.073Z,25.50
2022-08-25T00:26:30.088Z,24.20
2022-08-25T00:26:40.067Z,24.70
2022-08-25T00:26:50.053Z,24.60
2022-08-25T00:27:00.080Z,26.30
2022-08-25T00:27:10.214Z,35.30
2022-08-25T00:27:20.056Z,38.90
2022-08-25T00:27:30.076Z,42.80
2022-08-25T00:27:40.071Z,38.30
2022-08-25T00:27:50.061Z,30.30
2022-08-25T00:28:01.440Z,30.70
2022-08-25T00:28:10.267Z,25.90
2022-08-25T00:28:20.053Z,34.30
2022-08-25T00:28:30.151Z,26.00
2022-08-25T00:28:40.052Z,26.10
2022-08-25T00:28:50.049Z,25.20
2022-08-25T00:29:01.763Z,28.90
2022-08-25T00:29:10.986Z,31.70
2022-08-25T00:29:20.068Z,36.30
2022-08-25T00:29:30.090Z,28.10
2022-08-25T00:29:40.059Z,25.70
2022-08-25T00:29:50.047Z,25.20
2022-08-25T00:30:00.063Z,26.20
2022-08-25T00:30:10.043Z,26.40
2022-08-25T00:30:20.053Z,26.50
2022-08-25T00:30:30.071Z,35.60
2022-08-25T00:30:40.216Z,35.50
2022-08-25T00:30:50.136Z,32.90
2022-08-25T00:31:00.075Z,32.00
2022-08-25T00:31:10.126Z,28.00
2022-08-25T00:31:20.229Z,33.10
2022-08-25T00:31:38.430Z,29.70
2022-08-25T00:31:40.084Z,32.60
2022-08-25T00:31:50.037Z,27.30
2022-08-25T00:32:00.042Z,27.40
2022-08-25T00:32:10.954Z,28.00
2022-08-25T00:32:20.066Z,33.20
2022-08-25T00:32:30.027Z,33.10
2022-08-25T00:32:40.045Z,27.40
2022-08-25T00:32:55.046Z,25.10
2022-08-25T00:33:00.069Z,32.50
2022-08-25T00:33:10.081Z,43.20
2022-08-25T00:33:21.050Z,42.50
2022-08-25T00:33:30.031Z,29.20
2022-08-25T00:33:40.081Z,25.70
2022-08-25T00:33:50.020Z,26.30
2022-08-25T00:34:00.027Z,40.00
2022-08-25T00:34:10.023Z,38.20
2022-08-25T00:34:20.031Z,42.30
2022-08-25T00:34:30.070Z,32.50
2022-08-25T00:34:41.247Z,31.20
2022-08-25T00:34:50.028Z,26.80
2022-08-25T00:35:00.025Z,24.90
2022-08-25T00:35:10.021Z,24.70
2022-08-25T00:35:20.047Z,24.50
2022-08-25T00:35:30.133Z,24.90
2022-08-25T00:35:40.020Z,26.10
2022-08-25T00:35:50.105Z,26.20
2022-08-25T00:36:00.031Z,26.90
2022-08-25T00:36:10.012Z,25.60
2022-08-25T00:36:20.028Z,24.80
2022-08-25T00:36:30.996Z,24.00
2022-08-25T00:36:40.013Z,25.50
2022-08-25T00:36:50.943Z,31.10
2022-08-25T00:37:00.038Z,30.40
2022-08-25T00:37:10.017Z,29.80
2022-08-25T00:37:20.032Z,29.80
2022-08-25T00:37:30.966Z,36.00
2022-08-25T00:37:40.008Z,36.60
2022-08-25T00:37:50.049Z,25.90
2022-08-25T00:38:00.069Z,24.80
2022-08-25T00:38:10.025Z,29.20
2022-08-25T00:38:20.954Z,30.80
2022-08-25T00:38:30.001Z,30.50
2022-08-25T00:38:40.021Z,24.80
2022-08-25T00:38:50.026Z,24.40
2022-08-25T00:39:00.008Z,24.70
2022-08-25T00:39:10.008Z,40.20
2022-08-25T00:39:20.113Z,44.30
2022-08-25T00:39:30.004Z,42.50
2022-08-25T00:39:40.107Z,30.60
2022-08-25T00:39:51.040Z,32.50
2022-08-25T00:40:00.052Z,28.20
2022-08-25T00:40:10.031Z,24.90
2022-08-25T00:40:20.109Z,23.80
2022-08-25T00:40:30.082Z,28.10
2022-08-25T00:40:40.011Z,33.50
2022-08-25T00:40:50.034Z,42.90
2022-08-25T00:40:59.999Z,46.30
2022-08-25T00:41:10.004Z,35.00
2022-08-25T00:41:20.035Z,33.40
2022-08-25T00:41:29.990Z,32.50
2022-08-25T00:41:40.026Z,36.60
2022-08-25T00:41:49.993Z,36.30
2022-08-25T00:41:59.998Z,33.30
2022-08-25T00:42:15.918Z,37.60
2022-08-25T00:42:19.986Z,32.30
2022-08-25T00:42:30.004Z,25.70
2022-08-25T00:42:40.003Z,24.60
2022-08-25T00:42:49.984Z,25.40
2022-08-25T00:42:59.994Z,26.10
2022-08-25T00:43:09.980Z,28.10
2022-08-25T00:43:20.073Z,36.60
2022-08-25T00:43:29.993Z,33.30
2022-08-25T00:43:39.985Z,33.10
2022-08-25T00:43:49.994Z,25.10
2022-08-25T00:43:59.993Z,24.50
2022-08-25T00:44:09.976Z,23.80
2022-08-25T00:44:19.990Z,23.40
2022-08-25T00:44:29.990Z,24.60
2022-08-25T00:44:39.976Z,25.30
2022-08-25T00:44:49.977Z,34.20
2022-08-25T00:45:00.597Z,37.40
2022-08-25T00:45:09.970Z,32.70
2022-08-25T00:45:20.002Z,28.90
2022-08-25T00:45:29.982Z,24.80
2022-08-25T00:45:39.983Z,24.80
2022-08-25T00:45:50.046Z,24.60
2022-08-25T00:46:00.072Z,26.00
2022-08-25T00:46:10.153Z,26.70
2022-08-25T00:46:20.017Z,31.00
2022-08-25T00:46:30.104Z,26.70
2022-08-25T00:46:40.097Z,25.80
2022-08-25T00:46:49.967Z,24.10
2022-08-25T00:46:59.994Z,27.40
2022-08-25T00:47:09.978Z,29.90
2022-08-25T00:47:20.982Z,28.10
2022-08-25T00:47:29.965Z,24.90
2022-08-25T00:47:39.959Z,28.80
2022-08-25T00:47:49.994Z,36.20
2022-08-25T00:48:00.028Z,40.00
2022-08-25T00:48:09.974Z,39.00
2022-08-25T00:48:20.058Z,29.00
2022-08-25T00:48:29.966Z,36.60
2022-08-25T00:48:39.964Z,26.40
2022-08-25T00:48:49.964Z,26.20
2022-08-25T00:48:59.974Z,23.10
2022-08-25T00:49:09.967Z,22.90
2022-08-25T00:49:24.880Z,24.20
2022-08-25T00:49:29.959Z,23.60
2022-08-25T00:49:39.956Z,25.80
2022-08-25T00:49:49.957Z,25.00
2022-08-25T00:49:59.965Z,24.40
2022-08-25T00:50:10.025Z,23.30
2022-08-25T00:50:19.976Z,22.50
2022-08-25T00:50:29.956Z,23.90
2022-08-25T00:50:39.960Z,28.10
2022-08-25T00:50:49.958Z,26.20
2022-08-25T00:50:59.950Z,26.80
2022-08-25T00:51:09.962Z,24.40
2022-08-25T00:51:19.993Z,30.00
2022-08-25T00:51:29.963Z,28.70
2022-08-25T00:51:39.944Z,32.10
2022-08-25T00:51:49.954Z,32.30
2022-08-25T00:51:59.942Z,30.80
2022-08-25T00:52:09.942Z,24.60
2022-08-25T00:52:19.945Z,22.70
2022-08-25T00:52:29.944Z,25.10
2022-08-25T00:52:39.943Z,26.90
2022-08-25T00:52:49.941Z,29.90
2022-08-25T00:52:59.942Z,24.80
2022-08-25T00:53:09.939Z,26.30
2022-08-25T00:53:20.029Z,30.80
2022-08-25T00:53:29.946Z,25.60
2022-08-25T00:53:40.451Z,24.60
2022-08-25T00:53:49.952Z,24.10
2022-08-25T00:53:59.943Z,23.10
2022-08-25T00:54:09.980Z,30.50
2022-08-25T00:54:19.935Z,31.70
2022-08-25T00:54:29.935Z,32.50
2022-08-25T00:54:39.941Z,25.90
2022-08-25T00:54:49.948Z,25.20
2022-08-25T00:55:04.333Z,26.00
2022-08-25T00:55:09.943Z,30.60
2022-08-25T00:55:20.013Z,30.50
2022-08-25T00:55:29.929Z,28.40
2022-08-25T00:55:39.935Z,24.70
2022-08-25T00:55:49.939Z,24.00
2022-08-25T00:55:59.929Z,25.10
2022-08-25T00:56:09.941Z,30.30
2022-08-25T00:56:20.713Z,35.90
2022-08-25T00:56:29.936Z,25.00
2022-08-25T00:56:39.939Z,28.90
2022-08-25T00:56:49.940Z,24.70
2022-08-25T00:56:59.922Z,25.20
2022-08-25T00:57:10.053Z,25.60
2022-08-25T00:57:19.919Z,26.30
2022-08-25T00:57:34.671Z,29.70
2022-08-25T00:57:39.933Z,25.00
2022-08-25T00:57:49.921Z,25.80
2022-08-25T00:57:59.942Z,26.50
2022-08-25T00:58:10.460Z,26.10
2022-08-25T00:58:19.955Z,26.40
2022-08-25T00:58:29.961Z,32.70
2022-08-25T00:58:39.915Z,39.20
2022-08-25T00:58:49.918Z,30.60
2022-08-25T00:58:59.928Z,27.30
2022-08-25T00:59:09.927Z,25.90
2022-08-25T00:59:19.918Z,26.30
2022-08-25T00:59:29.915Z,26.20
2022-08-25T00:59:39.912Z,28.20
2022-08-25T00:59:49.915Z,28.00
2022-08-25T00:59:59.918Z,27.60
2022-08-25T01:00:09.916Z,28.20
2022-08-25T01:00:19.922Z,28.90
2022-08-25T01:00:30.002Z,34.70
2022-08-25T01:00:39.905Z,28.60
2022-08-25T01:00:49.907Z,27.70
2022-08-25T01:00:59.907Z,26.30
2022-08-25T01:01:09.952Z,26.20
2022-08-25T01:01:19.981Z,26.60
2022-08-25T01:01:30.020Z,27.20
2022-08-25T01:01:39.948Z,34.10
2022-08-25T01:01:50.049Z,42.90
2022-08-25T01:02:00.080Z,37.90
2022-08-25T01:02:10.199Z,28.00
2022-08-25T01:02:19.927Z,27.20
2022-08-25T01:02:29.990Z,26.40
2022-08-25T01:02:39.950Z,30.90
2022-08-25T01:02:49.989Z,30.70
2022-08-25T01:02:59.932Z,52.10
2022-08-25T01:03:09.906Z,42.10
2022-08-25T01:03:19.905Z,40.70
2022-08-25T01:03:33.174Z,27.10
2022-08-25T01:03:39.890Z,26.50
2022-08-25T01:03:49.917Z,25.70
2022-08-25T01:03:59.900Z,26.40
2022-08-25T01:04:09.892Z,26.00
2022-08-25T01:04:19.894Z,27.70
2022-08-25T01:04:29.921Z,30.60
2022-08-25T01:04:39.993Z,34.80
2022-08-25T01:04:49.895Z,36.30
2022-08-25T01:04:59.886Z,36.40
2022-08-25T01:05:09.894Z,40.00
2022-08-25T01:05:19.896Z,29.00
2022-08-25T01:05:29.910Z,30.60
2022-08-25T01:05:39.923Z,27.10
2022-08-25T01:05:49.892Z,29.10
2022-08-25T01:05:59.879Z,26.40
2022-08-25T01:06:09.885Z,26.70
2022-08-25T01:06:19.883Z,27.00
2022-08-25T01:06:29.882Z,26.70
2022-08-25T01:06:39.909Z,26.50
2022-08-25T01:06:50.004Z,25.30
2022-08-25T01:06:59.874Z,31.20
2022-08-25T01:07:15.514Z,29.40
2022-08-25T01:07:19.875Z,36.80
2022-08-25T01:07:29.875Z,27.40
2022-08-25T01:07:39.897Z,27.60
2022-08-25T01:07:49.878Z,28.00
2022-08-25T01:08:00.605Z,29.80
2022-08-25T01:08:10.090Z,26.00
2022-08-25T01:08:19.879Z,24.70
2022-08-25T01:08:30.466Z,24.50
2022-08-25T01:08:39.888Z,25.80
2022-08-25T01:08:49.873Z,32.50
2022-08-25T01:08:59.882Z,45.40
2022-08-25T01:09:09.889Z,35.90
2022-08-25T01:09:19.864Z,43.00
2022-08-25T01:09:29.872Z,39.10
2022-08-25T01:09:39.865Z,37.70
2022-08-25T01:09:49.869Z,28.20
2022-08-25T01:09:59.863Z,30.20
2022-08-25T01:10:09.866Z,29.00
2022-08-25T01:10:19.872Z,27.30
2022-08-25T01:10:29.907Z,26.70
2022-08-25T01:10:39.858Z,28.60
2022-08-25T01:10:49.961Z,37.10
2022-08-25T01:10:59.869Z,38.70
2022-08-25T01:11:09.857Z,40.40
2022-08-25T01:11:19.863Z,32.50
2022-08-25T01:11:29.870Z,29.80
2022-08-25T01:11:39.862Z,30.20
2022-08-25T01:11:49.863Z,38.60
2022-08-25T01:11:59.853Z,31.90
2022-08-25T01:12:09.861Z,26.70
2022-08-25T01:12:19.864Z,25.00
2022-08-25T01:12:29.851Z,25.90
2022-08-25T01:12:39.856Z,25.70
2022-08-25T01:12:49.874Z,27.10
2022-08-25T01:12:59.847Z,25.00
2022-08-25T01:13:16.683Z,24.70
2022-08-25T01:13:19.859Z,25.00
2022-08-25T01:13:30.480Z,25.40
2022-08-25T01:13:39.843Z,27.30
2022-08-25T01:13:49.871Z,26.70
2022-08-25T01:13:59.844Z,27.70
2022-08-25T01:14:09.848Z,25.90
2022-08-25T01:14:19.855Z,26.30
2022-08-25T01:14:29.846Z,25.70
2022-08-25T01:14:39.859Z,26.10
2022-08-25T01:14:49.860Z,26.00
2022-08-25T01:14:59.901Z,27.20
2022-08-25T01:15:10.472Z,30.00
2022-08-25T01:15:19.839Z,33.10
2022-08-25T01:15:29.906Z,29.80
2022-08-25T01:15:39.905Z,29.70
2022-08-25T01:15:49.920Z,28.60
2022-08-25T01:15:59.956Z,36.00
2022-08-25T01:16:10.041Z,33.90
2022-08-25T01:16:19.946Z,42.90
2022-08-25T01:16:29.842Z,31.10
2022-08-25T01:16:39.841Z,34.00
2022-08-25T01:16:51.099Z,32.00
2022-08-25T01:16:59.869Z,34.20
2022-08-25T01:17:09.963Z,29.50
2022-08-25T01:17:19.835Z,32.60
2022-08-25T01:17:29.845Z,31.60
2022-08-25T01:17:39.827Z,40.50
2022-08-25T01:17:49.847Z,35.80
2022-08-25T01:18:00.025Z,40.80
2022-08-25T01:18:09.829Z,39.00
2022-08-25T01:18:19.848Z,30.90
2022-08-25T01:18:29.836Z,30.10
2022-08-25T01:18:40.468Z,30.00
2022-08-25T01:18:49.826Z,30.20
2022-08-25T01:18:59.824Z,31.30
2022-08-25T01:19:09.878Z,30.80
2022-08-25T01:19:19.829Z,30.80
2022-08-25T01:19:29.831Z,30.10
2022-08-25T01:19:39.818Z,29.50
2022-08-25T01:19:49.850Z,30.10
2022-08-25T01:19:59.823Z,30.70
2022-08-25T01:20:09.819Z,46.90
2022-08-25T01:20:19.827Z,49.10
2022-08-25T01:20:29.831Z,48.20
2022-08-25T01:20:40.503Z,38.90
2022-08-25T01:20:49.817Z,37.80
2022-08-25T01:20:59.836Z,43.40
2022-08-25T01:21:10.028Z,42.30
2022-08-25T01:21:19.808Z,37.00
2022-08-25T01:21:29.812Z,30.90
2022-08-25T01:21:39.818Z,31.70
2022-08-25T01:21:49.828Z,32.60
2022-08-25T01:21:59.805Z,40.10
2022-08-25T01:22:09.814Z,30.90
2022-08-25T01:22:19.807Z,30.00
2022-08-25T01:22:29.805Z,37.20
2022-08-25T01:22:39.807Z,35.40
2022-08-25T01:22:55.217Z,32.90
2022-08-25T01:22:59.819Z,31.10
2022-08-25T01:23:09.811Z,31.70
2022-08-25T01:23:19.857Z,35.20
2022-08-25T01:23:29.812Z,36.30
2022-08-25T01:23:40.464Z,38.30
2022-08-25T01:23:49.803Z,31.40
2022-08-25T01:23:59.810Z,33.10
2022-08-25T01:24:09.816Z,31.30
2022-08-25T01:24:19.795Z,31.10
2022-08-25T01:24:29.809Z,35.20
2022-08-25T01:24:39.808Z,35.60
2022-08-25T01:24:49.799Z,43.50
2022-08-25T01:24:59.796Z,41.90
2022-08-25T01:25:09.816Z,44.00
2022-08-25T01:25:19.799Z,38.20
2022-08-25T01:25:29.794Z,30.70
2022-08-25T01:25:39.860Z,30.10
2022-08-25T01:25:49.796Z,29.70
2022-08-25T01:25:59.796Z,32.90
2022-08-25T01:26:09.800Z,35.80
2022-08-25T01:26:19.853Z,35.10
2022-08-25T01:26:30.501Z,35.70
2022-08-25T01:26:39.785Z,37.30
2022-08-25T01:26:49.797Z,38.80
2022-08-25T01:26:59.793Z,29.90
2022-08-25T01:27:09.788Z,29.00
2022-08-25T01:27:19.789Z,29.10
2022-08-25T01:27:29.818Z,31.00
2022-08-25T01:27:39.787Z,33.00
2022-08-25T01:27:49.792Z,31.00
2022-08-25T01:27:59.814Z,29.90
2022-08-25T01:28:09.786Z,29.50
2022-08-25T01:28:19.780Z,29.10
2022-08-25T01:28:29.792Z,33.80
2022-08-25T01:28:39.780Z,39.30
2022-08-25T01:28:49.787Z,40.30
2022-08-25T01:28:59.794Z,38.40
2022-08-25T01:29:09.778Z,38.50
2022-08-25T01:29:19.788Z,41.60
2022-08-25T01:29:30.469Z,41.50
2022-08-25T01:29:39.869Z,38.80
2022-08-25T01:29:49.786Z,31.30
2022-08-25T01:29:59.773Z,27.80
2022-08-25T01:30:09.780Z,27.80
2022-08-25T01:30:19.782Z,28.10
2022-08-25T01:30:29.772Z,29.60
2022-08-25T01:30:39.853Z,35.30
2022-08-25T01:30:49.835Z,28.90
2022-08-25T01:30:59.823Z,27.00
2022-08-25T01:31:23.694Z,25.50
2022-08-25T01:31:24.053Z,26.80
2022-08-25T01:31:29.849Z,28.00
2022-08-25T01:31:39.829Z,31.60
2022-08-25T01:31:49.764Z,33.00
2022-08-25T01:31:59.770Z,31.50
2022-08-25T01:32:09.877Z,30.40
2022-08-25T01:32:19.777Z,34.20
2022-08-25T01:32:29.758Z,37.20
2022-08-25T01:32:39.762Z,35.50
2022-08-25T01:32:49.762Z,30.50
2022-08-25T01:32:59.773Z,29.80
2022-08-25T01:33:09.781Z,29.60
2022-08-25T01:33:19.796Z,29.30
2022-08-25T01:33:29.763Z,29.70
2022-08-25T01:33:39.773Z,31.60
2022-08-25T01:33:49.752Z,29.40
2022-08-25T01:33:59.765Z,33.20
2022-08-25T01:34:09.760Z,35.70
2022-08-25T01:34:19.754Z,38.40
2022-08-25T01:34:29.765Z,44.80
2022-08-25T01:34:39.770Z,44.20
2022-08-25T01:34:49.758Z,40.80
2022-08-25T01:34:59.792Z,29.90
2022-08-25T01:35:09.825Z,28.50
2022-08-25T01:35:20.478Z,28.60
2022-08-25T01:35:29.780Z,28.20
2022-08-25T01:35:39.747Z,29.40
2022-08-25T01:35:49.817Z,28.70
2022-08-25T01:35:59.761Z,29.70
2022-08-25T01:36:09.744Z,29.80
2022-08-25T01:36:19.750Z,29.30
2022-08-25T01:36:29.752Z,29.60
2022-08-25T01:36:39.816Z,30.20
2022-08-25T01:36:49.740Z,30.30
2022-08-25T01:36:59.748Z,29.90
2022-08-25T01:37:13.385Z,33.10
2022-08-25T01:37:19.748Z,30.90
2022-08-25T01:37:29.745Z,31.40
2022-08-25T01:37:39.739Z,28.60
2022-08-25T01:37:49.769Z,29.70
2022-08-25T01:37:59.834Z,36.30
2022-08-25T01:38:09.740Z,35.40
2022-08-25T01:38:19.747Z,42.50
2022-08-25T01:38:29.731Z,30.40
2022-08-25T01:38:39.749Z,28.20
2022-08-25T01:38:50.477Z,29.40
2022-08-25T01:38:59.738Z,31.60
2022-08-25T01:39:09.738Z,34.60
2022-08-25T01:39:19.732Z,34.20
2022-08-25T01:39:29.727Z,38.10
2022-08-25T01:39:39.743Z,35.10
2022-08-25T01:39:49.804Z,33.50
2022-08-25T01:39:59.925Z,29.90
2022-08-25T01:40:09.773Z,29.60
2022-08-25T01:40:19.785Z,28.80
2022-08-25T01:40:29.748Z,30.10
2022-08-25T01:40:39.748Z,32.50
2022-08-25T01:40:49.724Z,35.80
2022-08-25T01:40:59.773Z,38.80
2022-08-25T01:41:09.731Z,36.50
2022-08-25T01:41:19.723Z,38.50
2022-08-25T01:41:29.733Z,42.20
2022-08-25T01:41:39.760Z,49.00
2022-08-25T01:41:50.448Z,46.50
2022-08-25T01:42:02.496Z,45.90
2022-08-25T01:42:09.721Z,38.70
2022-08-25T01:42:19.730Z,33.50
2022-08-25T01:42:29.732Z,29.80
2022-08-25T01:42:39.743Z,29.00
2022-08-25T01:42:49.716Z,29.10
2022-08-25T01:42:59.720Z,29.20
2022-08-25T01:43:09.726Z,28.90
2022-08-25T01:43:19.721Z,28.40
2022-08-25T01:43:29.713Z,27.00
2022-08-25T01:43:39.723Z,28.50
2022-08-25T01:43:49.717Z,36.10
2022-08-25T01:44:02.495Z,45.50
2022-08-25T01:44:15.945Z,50.30
2022-08-25T01:44:19.719Z,36.70
2022-08-25T01:44:29.705Z,34.70
2022-08-25T01:44:39.709Z,29.60
2022-08-25T01:44:49.711Z,40.00
2022-08-25T01:44:59.739Z,32.60
2022-08-25T01:45:09.703Z,33.30
2022-08-25T01:45:19.708Z,29.30
2022-08-25T01:45:29.713Z,33.00
2022-08-25T01:45:39.707Z,28.50
2022-08-25T01:45:49.754Z,28.80
2022-08-25T01:45:59.825Z,29.60
2022-08-25T01:46:09.799Z,35.20
2022-08-25T01:46:19.756Z,34.50
2022-08-25T01:46:29.777Z,37.20
2022-08-25T01:46:39.701Z,40.00
2022-08-25T01:46:49.718Z,33.90
2022-08-25T01:46:59.736Z,31.20
2022-08-25T01:47:09.702Z,31.00
2022-08-25T01:47:19.706Z,33.60
2022-08-25T01:47:30.494Z,43.90
2022-08-25T01:47:39.716Z,40.50
2022-08-25T01:47:49.699Z,32.00
2022-08-25T01:47:59.772Z,30.40
2022-08-25T01:48:09.706Z,30.80
2022-08-25T01:48:19.768Z,38.40
2022-08-25T01:48:29.688Z,36.90
2022-08-25T01:48:39.705Z,35.60
2022-08-25T01:48:49.698Z,35.40
2022-08-25T01:49:02.752Z,40.70
2022-08-25T01:49:09.714Z,40.40
2022-08-25T01:49:19.718Z,32.30
2022-08-25T01:49:29.693Z,29.20
2022-08-25T01:49:39.691Z,29.30
2022-08-25T01:49:49.686Z,33.30
2022-08-25T01:49:59.693Z,37.40
2022-08-25T01:50:09.690Z,35.00
2022-08-25T01:50:20.485Z,28.70
2022-08-25T01:50:29.697Z,28.00
2022-08-25T01:50:39.695Z,29.70
2022-08-25T01:50:49.677Z,33.60
2022-08-25T01:50:59.684Z,34.00
2022-08-25T01:51:09.689Z,33.10
2022-08-25T01:51:19.775Z,33.40
2022-08-25T01:51:29.688Z,36.50
2022-08-25T01:51:39.687Z,44.20
2022-08-25T01:51:49.675Z,42.60
2022-08-25T01:51:59.709Z,33.10
2022-08-25T01:52:09.833Z,30.00
2022-08-25T01:52:19.688Z,28.70
2022-08-25T01:52:29.730Z,27.10
2022-08-25T01:52:39.673Z,26.00
2022-08-25T01:52:50.583Z,26.30
2022-08-25T01:52:59.680Z,27.30
2022-08-25T01:53:09.670Z,29.00
2022-08-25T01:53:19.671Z,28.00
2022-08-25T01:53:29.666Z,27.70
2022-08-25T01:53:39.670Z,28.10
2022-08-25T01:53:49.668Z,31.90
2022-08-25T01:53:59.704Z,33.40
2022-08-25T01:54:09.665Z,28.70
2022-08-25T01:54:19.677Z,28.20
2022-08-25T01:54:30.494Z,32.20
2022-08-25T01:54:39.666Z,35.40
2022-08-25T01:54:49.683Z,38.80
2022-08-25T01:54:59.669Z,38.40
2022-08-25T01:55:09.658Z,34.00
2022-08-25T01:55:19.678Z,39.40
2022-08-25T01:55:29.789Z,39.90
2022-08-25T01:55:39.668Z,38.50
2022-08-25T01:55:49.660Z,31.20
2022-08-25T01:55:59.661Z,27.70
2022-08-25T01:56:09.937Z,26.70
2022-08-25T01:56:19.670Z,26.30
2022-08-25T01:56:29.653Z,25.70
2022-08-25T01:56:39.732Z,26.50
2022-08-25T01:56:49.656Z,27.70
2022-08-25T01:56:59.653Z,33.60
2022-08-25T01:57:09.673Z,29.90
2022-08-25T01:57:19.723Z,26.80
2022-08-25T01:57:29.653Z,25.90
2022-08-25T01:57:39.675Z,27.10
2022-08-25T01:57:50.493Z,37.90
2022-08-25T01:57:59.819Z,45.20
2022-08-25T01:58:10.484Z,46.90
2022-08-25T01:58:19.661Z,31.80
2022-08-25T01:58:29.653Z,27.70
2022-08-25T01:58:39.685Z,26.00
2022-08-25T01:58:49.743Z,26.50
2022-08-25T01:58:59.653Z,26.80
2022-08-25T01:59:09.652Z,28.00
2022-08-25T01:59:24.241Z,35.40
2022-08-25T01:59:29.638Z,40.40
2022-08-25T01:59:40.496Z,32.10
2022-08-25T01:59:49.642Z,28.90
2022-08-25T01:59:59.649Z,27.80
2022-08-25T02:00:09.700Z,28.40
2022-08-25T02:00:19.645Z,27.30
2022-08-25T02:00:30.681Z,27.60
2022-08-25T02:00:39.649Z,35.00
2022-08-25T02:00:49.705Z,32.30
2022-08-25T02:00:59.717Z,33.80
2022-08-25T02:01:09.679Z,30.30
2022-08-25T02:01:19.672Z,29.50
2022-08-25T02:01:29.678Z,37.10
2022-08-25T02:01:39.674Z,34.80
2022-08-25T02:01:49.720Z,46.00
2022-08-25T02:02:00.349Z,40.50
2022-08-25T02:02:09.646Z,33.70
2022-08-25T02:02:19.657Z,29.30
2022-08-25T02:02:31.645Z,29.30
2022-08-25T02:02:42.628Z,30.30
2022-08-25T02:02:52.223Z,30.80
2022-08-25T02:02:59.676Z,34.10
2022-08-25T02:03:14.299Z,37.50
2022-08-25T02:03:19.729Z,37.50
2022-08-25T02:03:29.652Z,39.80
2022-08-25T02:03:42.246Z,36.40
2022-08-25T02:03:49.631Z,38.80
2022-08-25T02:03:59.641Z,32.70
2022-08-25T02:04:09.620Z,38.50
2022-08-25T02:04:19.622Z,40.70
2022-08-25T02:04:29.621Z,42.50
2022-08-25T02:04:40.794Z,33.80
2022-08-25T02:04:49.649Z,31.80
2022-08-25T02:04:59.675Z,31.80
2022-08-25T02:05:09.615Z,33.10
2022-08-25T02:05:23.388Z,30.60
2022-08-25T02:05:29.616Z,31.20
2022-08-25T02:05:40.550Z,39.20
2022-08-25T02:05:49.624Z,38.00
2022-08-25T02:05:59.619Z,43.00
2022-08-25T02:06:09.621Z,48.60
2022-08-25T02:06:19.631Z,50.80
2022-08-25T02:06:29.961Z,44.80
2022-08-25T02:06:39.617Z,33.90
2022-08-25T02:06:49.615Z,32.20
2022-08-25T02:06:59.683Z,41.60
2022-08-25T02:07:09.605Z,50.90
2022-08-25T02:07:19.637Z,55.80
2022-08-25T02:07:29.612Z,50.00
2022-08-25T02:07:39.675Z,45.00
2022-08-25T02:07:49.609Z,42.80
2022-08-25T02:07:59.732Z,46.40
2022-08-25T02:08:09.606Z,39.60
2022-08-25T02:08:19.614Z,34.40
2022-08-25T02:08:29.614Z,32.00
2022-08-25T02:08:39.610Z,34.10